createdAt,value
2023-02-13T00:01:36.588Z,100.00
2023-02-13T00:04:05.972Z,100.00
2023-02-13T00:06:35.576Z,100.00
2023-02-13T00:09:07.282Z,100.00
2023-02-13T00:11:35.938Z,100.00
2023-02-13T00:14:04.564Z,100.00
2023-02-13T00:16:33.145Z,100.00
2023-02-13T00:19:01.937Z,100.00
2023-02-13T00:21:30.628Z,100.00
2023-02-13T00:23:59.111Z,100.00
2023-02-13T00:26:29.321Z,100.00
2023-02-13T00:28:59.179Z,100.00
2023-02-13T00:31:29.833Z,100.00
2023-02-13T00:33:59.065Z,100.00
2023-02-13T00:36:29.127Z,100.00
2023-02-13T00:38:57.691Z,100.00
2023-02-13T00:41:27.434Z,100.00
2023-02-13T00:43:58.136Z,100.00
2023-02-13T00:46:26.837Z,100.00
2023-02-13T00:48:55.483Z,100.00
2023-02-13T00:51:24.229Z,100.00
2023-02-13T00:53:53.560Z,100.00
2023-02-13T00:56:22.236Z,100.00
2023-02-13T00:58:51.695Z,100.00
2023-02-13T01:01:21.803Z,100.00
2023-02-13T01:03:50.516Z,100.00
2023-02-13T01:06:19.192Z,100.00
2023-02-13T01:08:49.624Z,100.00
2023-02-13T01:11:20.154Z,100.00
2023-02-13T01:13:48.767Z,100.00
2023-02-13T01:16:18.369Z,100.00
2023-02-13T01:18:50.440Z,100.00
2023-02-13T01:21:19.965Z,100.00
2023-02-13T01:23:48.693Z,100.00
2023-02-13T01:26:20.271Z,100.00
2023-02-13T01:28:53.650Z,100.00
2023-02-13T01:31:22.549Z,100.00
2023-02-13T01:33:53.789Z,100.00
2023-02-13T01:36:24.242Z,100.00
2023-02-13T01:38:54.661Z,100.00
2023-02-13T01:41:23.561Z,100.00
2023-02-13T01:43:54.325Z,100.00
2023-02-13T01:46:26.249Z,100.00
2023-02-13T01:48:58.903Z,100.00
2023-02-13T01:51:36.784Z,100.00
2023-02-13T01:54:09.729Z,100.00
2023-02-13T01:56:42.716Z,100.00
2023-02-13T01:59:12.882Z,100.00
2023-02-13T02:01:41.756Z,100.00
2023-02-13T02:04:13.894Z,100.00
2023-02-13T02:06:45.662Z,100.00
2023-02-13T02:09:25.437Z,100.00
2023-02-13T02:11:57.069Z,100.00
2023-02-13T02:14:27.153Z,100.00
2023-02-13T02:16:58.850Z,100.00
2023-02-13T02:19:37.090Z,100.00
2023-02-13T02:22:28.837Z,100.00
2023-02-13T02:25:15.974Z,100.00
2023-02-13T02:28:06.343Z,100.00
2023-02-13T02:30:56.463Z,100.00
2023-02-13T02:33:32.870Z,100.00
2023-02-13T02:36:10.857Z,100.00
2023-02-13T02:38:48.790Z,100.00
2023-02-13T02:41:40.385Z,100.00
2023-02-13T02:44:18.277Z,100.00
2023-02-13T02:47:07.206Z,100.00
2023-02-13T02:49:57.086Z,100.00
2023-02-13T02:52:28.055Z,100.00
2023-02-13T02:55:08.373Z,100.00
2023-02-13T02:58:09.849Z,100.00
2023-02-13T03:01:00.543Z,100.00
2023-02-13T03:03:48.106Z,100.00
2023-02-13T03:06:23.540Z,100.00
2023-02-13T03:09:12.411Z,100.00
2023-02-13T03:12:00.510Z,100.00
2023-02-13T03:14:29.949Z,100.00
2023-02-13T03:17:17.808Z,100.00
2023-02-13T03:20:15.531Z,100.00
2023-02-13T03:22:53.802Z,100.00
2023-02-13T03:25:34.575Z,100.00
2023-02-13T03:28:25.849Z,100.00
2023-02-13T03:31:00.092Z,100.00
2023-02-13T03:33:37.321Z,100.00
2023-02-13T03:36:26.782Z,100.00
2023-02-13T03:38:58.855Z,100.00
2023-02-13T03:41:31.186Z,100.00
2023-02-13T03:44:07.626Z,100.00
2023-02-13T03:46:37.857Z,100.00
2023-02-13T03:49:25.894Z,100.00
2023-02-13T03:51:57.704Z,100.00
2023-02-13T03:54:47.111Z,100.00
2023-02-13T03:57:36.965Z,100.00
2023-02-13T04:00:07.723Z,100.00
2023-02-13T04:02:44.273Z,100.00
2023-02-13T04:05:18.157Z,100.00
2023-02-13T04:07:47.334Z,100.00
2023-02-13T04:10:18.728Z,100.00
2023-02-13T04:12:52.115Z,100.00
2023-02-13T04:15:22.507Z,100.00
2023-02-13T04:17:53.959Z,100.00
2023-02-13T04:20:22.800Z,100.00
2023-02-13T04:22:52.019Z,100.00
2023-02-13T04:25:22.336Z,100.00
2023-02-13T04:27:51.064Z,100.00
2023-02-13T04:30:19.693Z,100.00
2023-02-13T04:32:48.441Z,100.00
2023-02-13T04:35:16.977Z,100.00
2023-02-13T04:37:45.675Z,100.00
2023-02-13T04:40:14.484Z,100.00
2023-02-13T04:42:45.698Z,100.00
2023-02-13T04:45:14.421Z,100.00
2023-02-13T04:47:42.981Z,100.00
2023-02-13T04:50:12.548Z,100.00
2023-02-13T04:52:41.774Z,100.00
2023-02-13T04:55:11.429Z,100.00
2023-02-13T04:57:41.186Z,100.00
2023-02-13T05:00:12.197Z,100.00
2023-02-13T05:02:40.829Z,100.00
2023-02-13T05:05:10.284Z,100.00
2023-02-13T05:07:39.411Z,100.00
2023-02-13T05:10:08.564Z,100.00
2023-02-13T05:12:37.781Z,100.00
2023-02-13T05:15:07.293Z,100.00
2023-02-13T05:17:37.314Z,100.00
2023-02-13T05:20:06.168Z,100.00
2023-02-13T05:22:52.189Z,100.00
2023-02-13T05:25:20.951Z,100.00
2023-02-13T05:27:49.494Z,100.00
2023-02-13T05:30:18.207Z,100.00
2023-02-13T05:32:48.162Z,100.00
2023-02-13T05:35:16.839Z,100.00
2023-02-13T05:37:45.503Z,100.00
2023-02-13T05:40:15.531Z,100.00
2023-02-13T05:42:45.215Z,100.00
2023-02-13T05:45:13.781Z,100.00
2023-02-13T05:47:42.343Z,100.00
2023-02-13T05:50:12.609Z,100.00
2023-02-13T05:52:41.303Z,100.00
2023-02-13T05:55:10.031Z,100.00
2023-02-13T05:57:38.753Z,100.00
2023-02-13T06:00:08.167Z,100.00
2023-02-13T06:02:37.386Z,100.00
2023-02-13T06:05:06.424Z,100.00
2023-02-13T06:07:37.357Z,100.00
2023-02-13T06:10:06.552Z,100.00
2023-02-13T06:12:35.295Z,100.00
2023-02-13T06:15:04.467Z,100.00
2023-02-13T06:17:33.068Z,100.00
2023-02-13T06:20:01.637Z,100.00
2023-02-13T06:22:31.401Z,100.00
2023-02-13T06:25:01.552Z,100.00
2023-02-13T06:27:31.360Z,100.00
2023-02-13T06:30:00.071Z,100.00
2023-02-13T06:32:28.758Z,100.00
2023-02-13T06:34:58.714Z,100.00
2023-02-13T06:37:27.368Z,100.00
2023-02-13T06:39:56.078Z,100.00
2023-02-13T06:42:26.775Z,100.00
2023-02-13T06:44:56.188Z,100.00
2023-02-13T06:47:25.000Z,100.00
2023-02-13T06:49:53.819Z,100.00
2023-02-13T06:52:22.422Z,100.00
2023-02-13T06:54:51.085Z,100.00
2023-02-13T06:57:20.378Z,100.00
2023-02-13T06:59:50.389Z,100.00
2023-02-13T07:02:19.131Z,100.00
2023-02-13T07:04:47.668Z,100.00
2023-02-13T07:07:17.012Z,100.00
2023-02-13T07:09:45.863Z,100.00
2023-02-13T07:12:14.573Z,100.00
2023-02-13T07:14:43.154Z,100.00
2023-02-13T07:17:13.243Z,100.00
2023-02-13T07:19:42.399Z,100.00
2023-02-13T07:22:11.007Z,100.00
2023-02-13T07:24:40.477Z,100.00
2023-02-13T07:27:09.412Z,100.00
2023-02-13T07:29:38.752Z,100.00
2023-02-13T07:32:09.368Z,100.00
2023-02-13T07:34:44.390Z,100.00
2023-02-13T07:37:17.959Z,100.00
2023-02-13T07:39:46.485Z,100.00
2023-02-13T07:42:15.108Z,100.00
2023-02-13T07:44:43.681Z,100.00
2023-02-13T07:47:12.371Z,100.00
2023-02-13T07:49:43.008Z,100.00
2023-02-13T07:52:12.376Z,100.00
2023-02-13T07:54:47.868Z,100.00
2023-02-13T07:57:16.843Z,100.00
2023-02-13T07:59:45.481Z,100.00
2023-02-13T08:02:14.857Z,100.00
2023-02-13T08:04:46.759Z,100.00
2023-02-13T08:07:15.758Z,100.00
2023-02-13T08:10:03.000Z,100.00
2023-02-13T08:12:33.182Z,100.00
2023-02-13T08:15:01.887Z,100.00
2023-02-13T08:17:31.904Z,100.00
2023-02-13T08:20:03.400Z,100.00
2023-02-13T08:22:32.210Z,100.00
2023-02-13T08:25:00.970Z,100.00
2023-02-13T08:27:31.434Z,100.00
2023-02-13T08:30:00.629Z,100.00
2023-02-13T08:32:29.397Z,100.00
2023-02-13T08:34:59.855Z,100.00
2023-02-13T08:37:30.613Z,100.00
2023-02-13T08:39:59.373Z,100.00
2023-02-13T08:42:28.020Z,100.00
2023-02-13T08:44:58.182Z,100.00
2023-02-13T08:47:28.076Z,100.00
2023-02-13T08:49:56.754Z,100.00
2023-02-13T08:52:26.038Z,100.00
2023-02-13T08:54:56.074Z,100.00
2023-02-13T08:57:24.916Z,100.00
2023-02-13T08:59:53.438Z,100.00
2023-02-13T09:02:22.035Z,100.00
2023-02-13T09:04:51.350Z,100.00
2023-02-13T09:07:19.998Z,100.00
2023-02-13T09:09:48.853Z,100.00
2023-02-13T09:12:18.911Z,100.00
2023-02-13T09:14:49.061Z,100.00
2023-02-13T09:17:19.206Z,100.00
2023-02-13T09:19:48.001Z,100.00
2023-02-13T09:22:17.544Z,100.00
2023-02-13T09:24:46.331Z,100.00
2023-02-13T09:27:15.283Z,100.00
2023-02-13T09:29:45.557Z,100.00
2023-02-13T09:32:14.223Z,100.00
2023-02-13T09:34:42.831Z,100.00
2023-02-13T09:37:12.867Z,100.00
2023-02-13T09:39:41.763Z,100.00
2023-02-13T09:42:17.107Z,100.00
2023-02-13T09:44:47.950Z,100.00
2023-02-13T09:47:19.241Z,100.00
2023-02-13T09:49:50.154Z,100.00
2023-02-13T09:52:18.967Z,100.00
2023-02-13T09:54:47.495Z,100.00
2023-02-13T09:57:18.393Z,100.00
2023-02-13T09:59:52.191Z,100.00
2023-02-13T10:02:32.946Z,100.00
2023-02-13T10:05:06.453Z,100.00
2023-02-13T10:07:39.775Z,100.00
2023-02-13T10:10:14.312Z,100.00
2023-02-13T10:12:57.896Z,97.70
2023-02-13T10:15:33.059Z,97.02
2023-02-13T10:18:05.175Z,97.12
2023-02-13T10:20:36.009Z,99.97
2023-02-13T10:23:19.331Z,99.40
2023-02-13T10:25:50.530Z,98.77
2023-02-13T10:28:20.765Z,100.00
2023-02-13T10:30:54.505Z,96.92
2023-02-13T10:33:27.510Z,95.28
2023-02-13T10:36:00.834Z,94.79
2023-02-13T10:38:32.058Z,93.47
2023-02-13T10:41:20.409Z,91.81
2023-02-13T10:43:54.765Z,90.45
2023-02-13T10:46:28.876Z,90.52
2023-02-13T10:49:07.830Z,90.30
2023-02-13T10:51:42.064Z,91.84
2023-02-13T10:54:35.428Z,89.93
2023-02-13T10:57:10.670Z,87.91
2023-02-13T10:59:45.478Z,86.24
2023-02-13T11:02:22.867Z,88.09
2023-02-13T11:04:52.205Z,87.62
2023-02-13T11:07:23.255Z,87.82
2023-02-13T11:09:56.245Z,86.18
2023-02-13T11:12:26.105Z,82.92
2023-02-13T11:14:58.840Z,82.19
2023-02-13T11:17:31.428Z,84.65
2023-02-13T11:20:01.529Z,83.43
2023-02-13T11:22:33.884Z,81.19
2023-02-13T11:25:04.574Z,81.33
2023-02-13T11:27:34.599Z,81.89
2023-02-13T11:30:04.393Z,78.25
2023-02-13T11:32:35.175Z,77.75
2023-02-13T11:35:20.042Z,77.60
2023-02-13T11:37:48.930Z,77.61
2023-02-13T11:40:31.924Z,79.29
2023-02-13T11:43:00.726Z,81.88
2023-02-13T11:45:29.604Z,83.58
2023-02-13T11:48:01.200Z,83.13
2023-02-13T11:50:31.690Z,82.95
2023-02-13T11:53:01.650Z,83.49
2023-02-13T11:55:32.348Z,83.27
2023-02-13T11:58:02.434Z,81.99
2023-02-13T12:00:40.680Z,81.46
2023-02-13T12:03:30.446Z,79.98
2023-02-13T12:06:02.956Z,80.50
2023-02-13T12:08:32.866Z,79.74
2023-02-13T12:11:04.130Z,81.51
2023-02-13T12:13:34.523Z,82.97
2023-02-13T12:16:06.870Z,84.17
2023-02-13T12:18:39.161Z,83.85
2023-02-13T12:21:17.986Z,87.13
2023-02-13T12:23:50.573Z,87.11
2023-02-13T12:26:24.363Z,88.75
2023-02-13T12:29:04.154Z,89.02
2023-02-13T12:31:40.251Z,90.57
2023-02-13T12:34:37.690Z,91.05
2023-02-13T12:37:14.734Z,89.11
2023-02-13T12:39:51.485Z,90.05
2023-02-13T12:42:31.259Z,90.04
2023-02-13T12:45:04.450Z,90.26
2023-02-13T12:47:36.629Z,91.31
2023-02-13T12:50:24.772Z,89.42
2023-02-13T12:53:10.826Z,89.88
2023-02-13T12:55:47.450Z,90.20
2023-02-13T12:58:34.530Z,89.37
2023-02-13T13:01:08.542Z,88.75
2023-02-13T13:03:41.434Z,91.72
2023-02-13T13:06:28.545Z,90.66
2023-02-13T13:09:05.874Z,90.58
2023-02-13T13:11:49.276Z,90.92
2023-02-13T13:14:22.818Z,91.64
2023-02-13T13:16:56.613Z,91.50
2023-02-13T13:19:34.727Z,91.69
2023-02-13T13:22:08.301Z,92.38
2023-02-13T13:24:43.992Z,93.19
2023-02-13T13:27:21.372Z,92.50
2023-02-13T13:29:54.267Z,92.46
2023-02-13T13:32:24.381Z,90.96
2023-02-13T13:34:53.381Z,92.21
2023-02-13T13:37:28.333Z,91.87
2023-02-13T13:40:00.257Z,93.78
2023-02-13T13:42:37.892Z,92.96
2023-02-13T13:45:13.014Z,94.41
2023-02-13T13:47:47.833Z,94.76
2023-02-13T13:50:21.772Z,94.63
2023-02-13T13:53:15.041Z,93.26
2023-02-13T13:56:02.550Z,92.57
2023-02-13T13:58:35.882Z,93.46
2023-02-13T14:01:24.840Z,93.16
2023-02-13T14:03:55.203Z,93.19
2023-02-13T14:06:25.285Z,93.64
2023-02-13T14:09:00.248Z,93.71
2023-02-13T14:11:46.544Z,94.32
2023-02-13T14:14:34.270Z,94.71
2023-02-13T14:17:03.657Z,95.58
2023-02-13T14:19:37.958Z,94.18
2023-02-13T14:22:25.778Z,94.10
2023-02-13T14:24:57.141Z,95.96
2023-02-13T14:27:27.020Z,94.31
2023-02-13T14:29:56.356Z,95.30
2023-02-13T14:32:29.353Z,94.20
2023-02-13T14:34:59.442Z,94.41
2023-02-13T14:37:37.011Z,95.04
2023-02-13T14:40:17.656Z,95.58
2023-02-13T14:42:48.238Z,95.40
2023-02-13T14:45:19.603Z,96.14
2023-02-13T14:47:53.687Z,96.50
2023-02-13T14:50:25.578Z,98.30
2023-02-13T14:52:55.385Z,96.88
2023-02-13T14:55:33.420Z,98.43
2023-02-13T14:58:06.712Z,99.07
2023-02-13T15:00:41.152Z,98.99
2023-02-13T15:03:25.365Z,99.50
2023-02-13T15:05:55.527Z,98.96
2023-02-13T15:08:26.228Z,100.00
2023-02-13T15:10:57.621Z,100.00
2023-02-13T15:13:29.460Z,100.00
2023-02-13T15:16:01.072Z,100.00
2023-02-13T15:18:32.154Z,100.00
2023-02-13T15:21:02.711Z,100.00
2023-02-13T15:23:32.817Z,100.00
2023-02-13T15:26:04.013Z,100.00
2023-02-13T15:28:33.390Z,100.00
2023-02-13T15:31:03.673Z,100.00
2023-02-13T15:33:38.058Z,100.00
2023-02-13T15:36:08.044Z,100.00
2023-02-13T15:38:38.255Z,100.00
2023-02-13T15:41:12.207Z,100.00
2023-02-13T15:43:42.102Z,100.00
2023-02-13T15:46:22.355Z,100.00
2023-02-13T15:48:51.197Z,100.00
2023-02-13T15:51:20.919Z,100.00
2023-02-13T15:53:53.774Z,100.00
2023-02-13T15:56:24.517Z,100.00
2023-02-13T15:58:54.814Z,100.00
2023-02-13T16:01:23.519Z,100.00
2023-02-13T16:03:54.937Z,100.00
2023-02-13T16:06:25.921Z,100.00
2023-02-13T16:08:55.436Z,100.00
2023-02-13T16:11:30.004Z,100.00
2023-02-13T16:14:04.473Z,100.00
2023-02-13T16:16:36.990Z,100.00
2023-02-13T16:19:06.264Z,100.00
2023-02-13T16:21:36.203Z,100.00
2023-02-13T16:24:06.092Z,100.00
2023-02-13T16:26:39.426Z,100.00
2023-02-13T16:29:10.994Z,100.00
2023-02-13T16:31:41.184Z,100.00
2023-02-13T16:34:16.779Z,100.00
2023-02-13T16:36:45.441Z,100.00
2023-02-13T16:39:20.134Z,100.00
2023-02-13T16:41:50.337Z,100.00
2023-02-13T16:44:26.366Z,100.00
2023-02-13T16:46:59.492Z,100.00
2023-02-13T16:49:29.556Z,100.00
2023-02-13T16:52:00.143Z,100.00
2023-02-13T16:54:33.634Z,100.00
2023-02-13T16:57:05.009Z,100.00
2023-02-13T16:59:40.107Z,100.00
2023-02-13T17:02:15.974Z,100.00
2023-02-13T17:04:45.325Z,100.00
2023-02-13T17:07:14.761Z,100.00
2023-02-13T17:09:43.601Z,100.00
2023-02-13T17:12:18.318Z,100.00
2023-02-13T17:14:48.416Z,100.00
2023-02-13T17:17:18.445Z,100.00
2023-02-13T17:19:47.234Z,100.00
2023-02-13T17:22:20.091Z,100.00
2023-02-13T17:24:49.763Z,100.00
2023-02-13T17:27:22.725Z,100.00
2023-02-13T17:29:51.848Z,100.00
2023-02-13T17:32:22.844Z,100.00
2023-02-13T17:34:52.047Z,100.00
2023-02-13T17:37:22.382Z,100.00
2023-02-13T17:39:51.693Z,100.00
2023-02-13T17:42:23.707Z,100.00
2023-02-13T17:44:53.024Z,100.00
2023-02-13T17:47:21.922Z,100.00
2023-02-13T17:49:55.158Z,100.00
2023-02-13T17:52:27.260Z,100.00
2023-02-13T17:54:56.701Z,100.00
2023-02-13T17:57:26.845Z,100.00
2023-02-13T17:59:57.158Z,100.00
2023-02-13T18:02:28.100Z,100.00
2023-02-13T18:04:56.742Z,100.00
2023-02-13T18:07:26.087Z,100.00
2023-02-13T18:09:54.882Z,100.00
2023-02-13T18:12:25.976Z,100.00
2023-02-13T18:14:56.235Z,100.00
2023-02-13T18:17:24.871Z,100.00
2023-02-13T18:19:53.596Z,100.00
2023-02-13T18:22:22.608Z,100.00
2023-02-13T18:24:51.384Z,100.00
2023-02-13T18:27:20.396Z,100.00
2023-02-13T18:29:49.529Z,100.00
2023-02-13T18:32:19.848Z,100.00
2023-02-13T18:34:48.720Z,100.00
2023-02-13T18:37:17.455Z,100.00
2023-02-13T18:39:46.315Z,100.00
2023-02-13T18:42:15.035Z,100.00
2023-02-13T18:44:45.462Z,100.00
2023-02-13T18:47:14.219Z,100.00
2023-02-13T18:49:46.262Z,100.00
2023-02-13T18:52:15.518Z,100.00
2023-02-13T18:54:44.087Z,100.00
2023-02-13T18:57:12.727Z,100.00
2023-02-13T18:59:42.091Z,100.00
2023-02-13T19:02:12.084Z,100.00
2023-02-13T19:04:41.061Z,100.00
2023-02-13T19:07:11.306Z,100.00
2023-02-13T19:09:41.186Z,100.00
2023-02-13T19:12:09.976Z,100.00
2023-02-13T19:14:38.692Z,100.00
2023-02-13T19:17:08.776Z,100.00
2023-02-13T19:19:37.541Z,100.00
2023-02-13T19:22:06.328Z,100.00
2023-02-13T19:24:37.843Z,100.00
2023-02-13T19:27:07.152Z,100.00
2023-02-13T19:29:35.747Z,100.00
2023-02-13T19:32:05.208Z,100.00
2023-02-13T19:34:34.987Z,100.00
2023-02-13T19:37:03.828Z,100.00
2023-02-13T19:39:33.209Z,100.00
2023-02-13T19:42:03.423Z,100.00
2023-02-13T19:44:32.820Z,100.00
2023-02-13T19:47:01.696Z,100.00
2023-02-13T19:49:30.310Z,100.00
2023-02-13T19:52:02.380Z,100.00
2023-02-13T19:54:31.270Z,100.00
2023-02-13T19:57:01.942Z,100.00
2023-02-13T19:59:32.804Z,100.00
2023-02-13T20:02:01.699Z,100.00
2023-02-13T20:04:37.039Z,100.00
2023-02-13T20:07:06.296Z,100.00
2023-02-13T20:09:35.552Z,100.00
2023-02-13T20:12:04.457Z,100.00
2023-02-13T20:14:35.369Z,100.00
2023-02-13T20:17:05.244Z,100.00
2023-02-13T20:19:33.990Z,100.00
2023-02-13T20:22:02.744Z,100.00
2023-02-13T20:24:33.289Z,100.00
2023-02-13T20:27:02.440Z,100.00
2023-02-13T20:29:31.012Z,100.00
2023-02-13T20:32:01.284Z,100.00
2023-02-13T20:34:37.637Z,100.00
2023-02-13T20:37:15.502Z,100.00
2023-02-13T20:39:44.237Z,100.00
2023-02-13T20:42:12.918Z,100.00
2023-02-13T20:44:41.496Z,100.00
2023-02-13T20:47:12.162Z,100.00
2023-02-13T20:49:40.871Z,100.00
2023-02-13T20:52:10.134Z,100.00
2023-02-13T20:54:39.062Z,100.00
2023-02-13T20:57:07.869Z,100.00
2023-02-13T20:59:37.212Z,100.00
2023-02-13T21:02:07.075Z,100.00
2023-02-13T21:04:37.835Z,100.00
2023-02-13T21:07:09.493Z,100.00
2023-02-13T21:09:38.609Z,100.00
2023-02-13T21:12:07.472Z,100.00
2023-02-13T21:14:36.882Z,100.00
2023-02-13T21:17:05.572Z,100.00
2023-02-13T21:19:34.265Z,100.00
2023-02-13T21:22:12.596Z,100.00
2023-02-13T21:24:41.836Z,100.00
2023-02-13T21:27:11.122Z,100.00
2023-02-13T21:29:39.921Z,100.00
2023-02-13T21:32:09.359Z,100.00
2023-02-13T21:34:38.073Z,100.00
2023-02-13T21:37:08.180Z,100.00
2023-02-13T21:39:37.501Z,100.00
2023-02-13T21:42:06.703Z,100.00
2023-02-13T21:44:36.057Z,100.00
2023-02-13T21:47:07.114Z,100.00
2023-02-13T21:49:36.636Z,100.00
2023-02-13T21:52:05.823Z,100.00
2023-02-13T21:54:35.908Z,100.00
2023-02-13T21:57:04.710Z,100.00
2023-02-13T21:59:33.286Z,100.00
2023-02-13T22:02:02.939Z,100.00
2023-02-13T22:04:35.257Z,100.00
2023-02-13T22:07:03.993Z,100.00
2023-02-13T22:09:32.544Z,100.00
2023-02-13T22:12:03.830Z,100.00
2023-02-13T22:14:32.563Z,100.00
2023-02-13T22:17:01.133Z,100.00
2023-02-13T22:19:30.393Z,100.00
2023-02-13T22:21:58.935Z,100.00
2023-02-13T22:24:27.982Z,100.00
2023-02-13T22:26:56.526Z,100.00
2023-02-13T22:29:27.214Z,100.00
2023-02-13T22:31:57.741Z,100.00
2023-02-13T22:34:26.634Z,100.00
2023-02-13T22:36:55.871Z,100.00
2023-02-13T22:39:24.545Z,100.00
2023-02-13T22:41:56.762Z,100.00
2023-02-13T22:44:26.959Z,100.00
2023-02-13T22:46:56.166Z,100.00
2023-02-13T22:49:24.692Z,100.00
2023-02-13T22:51:54.012Z,100.00
2023-02-13T22:54:22.643Z,100.00
2023-02-13T22:56:51.811Z,100.00
2023-02-13T22:59:20.430Z,100.00
2023-02-13T23:01:50.638Z,100.00
2023-02-13T23:04:22.050Z,100.00
2023-02-13T23:06:51.328Z,100.00
2023-02-13T23:09:19.848Z,100.00
2023-02-13T23:12:05.798Z,100.00
2023-02-13T23:14:34.410Z,100.00
2023-02-13T23:17:22.030Z,100.00
2023-02-13T23:19:50.634Z,100.00
2023-02-13T23:22:19.102Z,100.00
2023-02-13T23:24:47.795Z,100.00
2023-02-13T23:27:16.463Z,100.00
2023-02-13T23:29:45.106Z,100.00
2023-02-13T23:32:16.373Z,100.00
2023-02-13T23:34:45.518Z,100.00
2023-02-13T23:37:14.061Z,100.00
2023-02-13T23:39:42.641Z,100.00
2023-02-13T23:42:11.329Z,100.00
2023-02-13T23:44:39.829Z,100.00
2023-02-13T23:47:08.440Z,100.00
2023-02-13T23:49:38.428Z,100.00
2023-02-13T23:52:07.048Z,100.00
2023-02-13T23:54:35.744Z,100.00
2023-02-13T23:57:04.303Z,100.00
2023-02-13T23:59:33.669Z,100.00
